x

South Brooks (46132) Wave Buoy

5:00 - Thu 27th Aug 2015 All times are PDT. -7 hours from GMT.

  • Sig Wave height 4.6ft
  • Peak Period 14s
  • Wind
    7mph, 9mph gusts
  • Sea Temp 56°f
  • Ar Temp 58°f
  • Sea Pressure 1015.9mb
  • South Brooks
  • South Brooks

More Historic Weather Station data

Upgrade to MSW Pro to gain access to the past 30 days of data for over 8000 Wavebouys and Weather Stations around the globe.

Join Pro

Comparision Forecast

View Surf forecast
   
Qui 08/27 5:00 4.5ft 14s 7 9 mph 1015.9mb 56f 58f
4:00 4.5ft 16s 11 13 mph 1016.3mb 56f 59f
3:00 4.5ft 14s 9 11 mph 1016.8mb 56f 59f
2:00 4.5ft 15s 9 11 mph 1017.3mb 56f 59f
1:00 4.5ft 15s 9 11 mph 1017.6mb 56f 59f
12:00 4.5ft 14s 9
mph
1017.8mb 56f 58f
11:00 4.5ft 14s 7 9 mph 1017.8mb 56f 58f
10:00 4.5ft 14s 7 9 mph 1017.7mb 55f 58f
9:00 4.5ft 15s 7
mph
1017.9mb 55f 57f
8:00 4.5ft 15s 7 9 mph 1017.8mb 55f 57f
7:00 4.5ft 15s 7
mph
1018.1mb 55f 57f
6:00 4ft 15s 4
mph
1018mb 55f 56f
5:00 4ft 14s 4 7 mph 1017.6mb 55f 56f
4:00 4ft 14s 4
mph
1017.3mb 55f 56f
3:00 4ft 15s 4 7 mph 1017.2mb 55f 56f
2:00 3.5ft 14s 2 4 mph 1016.9mb 55f 56f
1:00 4ft 16s 2 4 mph 1017mb 56f 55f
12:00 3.5ft 16s 2 4 mph 1016.9mb 56f 55f
Qua 08/26 11:00 3.5ft 14s 4 7 mph 1016.9mb 56f 55f
10:00 3.5ft 16s 7
mph
1016.8mb 56f 56f
9:00 3.5ft 14s 4 7 mph 1017mb 56f 57f
8:00 3.5ft 15s 4
mph
1017mb 56f 56f
7:00 3.5ft 14s 7
mph
1016.8mb 56f 57f
6:00 4ft 14s 4
mph
1017.1mb 58f 58f
5:00 3.5ft 17s  -  2 mph 1017mb 57f 59f
4:00 3.5ft 14s 2
mph
1017.2mb 56f 57f
3:00 3.5ft 14s 2 4 mph 1017mb 56f 57f
2:00 3.5ft 16s 4
mph
1017.3mb 56f 57f
1:00 4ft 17s 4 7 mph 1017.3mb 56f 57f
12:00 4ft 14s 4
mph
1017.3mb 56f 56f
11:00 4ft 14s 4
mph
1017.1mb 55f 56f
10:00 4ft 15s 2 4 mph 1017mb 55f 56f
9:00 4ft 14s 2
mph
1016.8mb 54f 55f
8:00 4ft 14s 2 4 mph 1016.7mb 54f 55f
7:00 4ft 10s 2 4 mph 1016.5mb 54f 56f
6:00 4ft 9s 4
mph
1016.2mb 54f 56f
5:00 4ft 14s 4
mph
1016.4mb 55f 56f
4:00 4ft 10s 4
mph
1016.4mb 55f 56f
3:00 4ft 10s 2 4 mph 1016.4mb 55f 56f
2:00 4ft 9s 4 7 mph 1016.4mb 55f 56f
1:00 4.5ft 6s 9
mph
1016.6mb 55f 56f
12:00 4.5ft 6s 9
mph
1016.5mb 55f 56f
Ter 08/25 11:00 4.5ft 6s 7 9 mph 1016.7mb 56f 56f
10:00 5ft 7s 4 7 mph 1016.8mb 57f 57f
9:00 5ft 7s 7 9 mph 1016.9mb 55f 57f
8:00 5ft 7s 7 9 mph 1017mb 55f 57f
7:00 5ft 7s 9 11 mph 1017.3mb 55f 57f
6:00 5ft 5s 11 13 mph 1017.5mb 55f 58f
5:00 6ft 5s 13 16 mph 1017.5mb 55f 58f
4:00 5ft 5s 16 18 mph 1017.8mb 55f 58f
3:00 5ft 6s 13 18 mph 1017.7mb 56f 58f
2:00 5ft 5s 16 18 mph 1017.6mb 56f 58f
1:00 5ft 5s 20 22 mph 1017.4mb 56f 58f
12:00 5ft 5s 20 22 mph 1016.9mb 55f 57f
11:00 5ft 5s 22 29 mph 1016.4mb 55f 57f
10:00 4.5ft 10s 22 27 mph 1016.2mb 54f 57f
9:00 4ft 10s 20 25 mph 1016.2mb 54f 57f
8:00 4ft 10s 18 20 mph 1016.4mb 54f 57f
7:00 4ft 10s 16 20 mph 1016.6mb 55f 57f
6:00 4ft 10s 16 20 mph 1016.7mb 56f 57f
5:00 4.5ft 9s 16 20 mph 1016.8mb 57f 57f
4:00 4.5ft 9s 13 18 mph 1017mb 57f 57f
3:00 4ft 10s 9 13 mph 1017.3mb 57f 58f
2:00 4.5ft 11s 11 13 mph 1017.5mb 57f 58f
1:00 4.5ft 10s 4 7 mph 1017.5mb 58f 59f
12:00 4.5ft 10s 7 9 mph 1017.4mb 58f 60f
Seg 08/24 11:00 4.5ft 10s 9
mph
1017.5mb 59f 59f
10:00 4.5ft 10s 7 9 mph 1017.5mb 57f 59f
9:00 5ft 11s 7 9 mph 1017.5mb 58f 59f
8:00 5.5ft 11s 7 9 mph 1017.4mb 59f 59f
7:00 5ft 11s 4 9 mph 1017.7mb 59f 60f
6:00 4.5ft 10s 4
mph
1017.8mb 58f 60f
5:00 5ft 11s 4
mph
1017.9mb 58f 61f
4:00 5ft 11s 2 4 mph 1018.2mb 59f 60f
3:00 5.5ft 11s 4 7 mph 1018.4mb 59f 60f
2:00 5ft 10s 4
mph
1018.1mb 59f 60f
1:00 6ft 10s 4 7 mph 1018mb 58f 60f
12:00 6ft 10s 4
mph
1018mb 56f 59f
11:00 6.5ft 10s 7
mph
1018mb 56f 58f
10:00 7ft 10s 2
mph
1017.7mb 55f 58f
9:00 6ft 10s 4
mph
1017.7mb 56f 57f
8:00 6.5ft 10s 4 7 mph 1017.7mb 56f 57f
7:00 6ft 11s 7
mph
1017.6mb 56f 56f
6:00 6ft 11s 7 9 mph 1017.5mb 57f 56f
5:00 6ft 12s 9 11 mph 1017.5mb 57f 57f
4:00 6.5ft 12s 11 13 mph 1017.6mb 57f 57f
3:00 6ft 12s 11 13 mph 1017.7mb 57f 57f
2:00 6ft 11s 11 13 mph 1017.8mb 57f 58f